Time;durP1;ratioP1;P1;durP2;ratioP2;P2;SDS_P1;SDS_P2;PMS_P1;PMS_P2;Temp;Humidity;BMP_temperature;BMP_pressure;BME280_temperature;BME280_humidity;BME280_pressure;Samples;Min_cycle;Max_cycle;Signal;HPM_P1;HPM_P2
2023/11/17 00:00:31;;;;;;;18.65;6.28;;;;;;;6.50;73.18;93957.69;4888476;29;20039;-82
2023/11/17 00:02:56;;;;;;;15.90;6.55;;;;;;;6.52;73.09;93955.56;4888576;29;20021;-82
2023/11/17 00:05:22;;;;;;;14.40;6.85;;;;;;;6.45;73.42;93959.59;4888197;29;20406;-82
2023/11/17 00:07:47;;;;;;;13.15;6.80;;;;;;;6.38;73.67;93952.03;4887239;29;20059;-82
2023/11/17 00:10:13;;;;;;;18.00;7.28;;;;;;;6.40;74.03;93953.31;4887463;29;20029;-82
2023/11/17 00:12:41;;;;;;;19.50;6.32;;;;;;;6.43;73.98;93952.75;4887199;29;20104;-82
2023/11/17 00:15:07;;;;;;;18.45;6.90;;;;;;;6.48;74.16;93943.16;4888340;29;20077;-81
2023/11/17 00:17:33;;;;;;;14.48;7.00;;;;;;;6.49;74.43;93947.38;4887037;29;20260;-82
2023/11/17 00:19:58;;;;;;;12.18;5.18;;;;;;;6.50;74.59;93941.81;4888313;29;20044;-84
2023/11/17 00:22:24;;;;;;;14.32;7.13;;;;;;;6.50;74.75;93939.16;4888373;29;20029;-84
2023/11/17 00:24:49;;;;;;;14.65;5.60;;;;;;;6.52;74.73;93944.19;4887151;29;20045;-83
2023/11/17 00:27:16;;;;;;;18.92;6.38;;;;;;;6.53;74.82;93929.84;4887369;29;20028;-83
2023/11/17 00:29:43;;;;;;;12.65;5.35;;;;;;;6.55;74.30;93923.19;4888506;29;20025;-83
2023/11/17 00:32:09;;;;;;;16.75;6.28;;;;;;;6.57;74.23;93920.25;4891698;29;20070;-83
2023/11/17 00:34:34;;;;;;;14.88;5.53;;;;;;;6.60;74.44;93922.34;4890504;29;20062;-83
2023/11/17 00:37:03;;;;;;;16.80;5.88;;;;;;;6.59;74.53;93915.47;4891579;29;20032;-83
2023/11/17 00:39:29;;;;;;;13.38;5.60;;;;;;;6.61;74.53;93926.56;4891565;29;20024;-83
2023/11/17 00:41:55;;;;;;;13.35;5.95;;;;;;;6.51;74.34;93943.38;4890690;29;20029;-83
2023/11/17 00:44:21;;;;;;;12.93;6.00;;;;;;;6.45;73.79;93941.84;4890477;29;20040;-83
2023/11/17 00:46:47;;;;;;;16.25;5.15;;;;;;;6.38;74.03;93928.19;4891310;29;20128;-82
2023/11/17 00:49:13;;;;;;;14.55;5.05;;;;;;;6.32;74.17;93930.13;4891649;29;20148;-83
2023/11/17 00:51:38;;;;;;;9.95;4.38;;;;;;;6.27;74.36;93926.72;4890293;29;20101;-83
2023/11/17 00:54:04;;;;;;;8.32;4.05;;;;;;;6.27;74.36;93910.84;4891183;29;20079;-84
2023/11/17 00:56:30;;;;;;;10.68;4.80;;;;;;;6.28;74.46;93917.75;4891251;29;20029;-84
2023/11/17 00:58:55;;;;;;;10.65;4.93;;;;;;;6.29;74.87;93916.66;4891441;29;20212;-84
2023/11/17 01:01:20;;;;;;;11.20;5.65;;;;;;;6.28;74.31;93917.75;4891490;29;20029;-84
2023/11/17 01:03:47;;;;;;;10.73;5.07;;;;;;;6.26;74.37;93922.53;4890469;29;20033;-84
2023/11/17 01:06:13;;;;;;;12.50;5.30;;;;;;;6.27;73.96;93924.09;4891653;29;20029;-85
2023/11/17 01:08:38;;;;;;;12.45;4.45;;;;;;;6.19;74.32;93926.31;4890360;29;20024;-85
2023/11/17 01:11:04;;;;;;;11.98;5.18;;;;;;;5.99;74.89;93913.31;4891691;29;20081;-84
2023/11/17 01:13:29;;;;;;;12.95;5.43;;;;;;;5.93;75.16;93917.06;4890500;29;20104;-84
2023/11/17 01:15:55;;;;;;;14.43;5.53;;;;;;;5.86;75.57;93911.31;4891252;29;20319;-83
2023/11/17 01:18:23;;;;;;;15.23;5.70;;;;;;;5.85;75.26;93885.94;4891239;29;20061;-84
2023/11/17 01:20:48;;;;;;;15.32;5.65;;;;;;;5.85;75.50;93872.72;4891394;29;20230;-84
2023/11/17 01:23:13;;;;;;;11.73;4.65;;;;;;;5.88;75.58;93875.56;4891363;29;20036;-84
2023/11/17 01:25:40;;;;;;;11.18;5.28;;;;;;;5.91;75.46;93876.88;4891262;29;20029;-83
2023/11/17 01:28:06;;;;;;;11.95;4.88;;;;;;;5.93;75.42;93849.06;4891045;29;20088;-83
2023/11/17 01:30:32;;;;;;;12.63;4.35;;;;;;;5.93;75.64;93853.56;4891088;29;20230;-83
2023/11/17 01:32:58;;;;;;;15.32;5.35;;;;;;;5.98;75.21;93850.88;4890930;29;20033;-83
2023/11/17 01:35:25;;;;;;;10.73;5.00;;;;;;;5.96;75.48;93855.66;4891174;29;20029;-83
2023/11/17 01:37:50;;;;;;;13.50;5.57;;;;;;;5.90;74.88;93865.50;4889743;29;20049;-83
2023/11/17 01:40:17;;;;;;;12.52;5.65;;;;;;;5.88;74.96;93866.84;4891052;29;20057;-83
2023/11/17 01:42:43;;;;;;;12.80;5.25;;;;;;;5.84;75.19;93856.03;4890726;29;20029;-83
2023/11/17 01:45:09;;;;;;;19.40;4.75;;;;;;;5.88;75.05;93869.50;4890657;29;20170;-84
2023/11/17 01:47:37;;;;;;;11.88;5.00;;;;;;;5.80;75.28;93861.13;4890589;29;20037;-83
2023/11/17 01:50:05;;;;;;;10.80;4.75;;;;;;;5.78;75.10;93859.81;4889492;29;20048;-84
2023/11/17 01:52:31;;;;;;;10.48;5.70;;;;;;;5.75;75.12;93850.59;4890639;29;20021;-83
2023/11/17 01:54:57;;;;;;;11.90;5.88;;;;;;;5.77;75.25;93850.31;4890552;29;20065;-83
2023/11/17 01:57:23;;;;;;;11.73;5.63;;;;;;;5.72;75.00;93845.88;4890544;29;20029;-84
2023/11/17 01:59:49;;;;;;;11.10;5.10;;;;;;;5.67;75.09;93835.34;4890334;29;20021;-84
2023/11/17 02:02:15;;;;;;;14.52;4.95;;;;;;;5.62;75.37;93840.72;4890618;29;20044;-84
2023/11/17 02:04:41;;;;;;;10.90;5.10;;;;;;;5.59;75.78;93854.47;4889126;29;20021;-84
2023/11/17 02:07:24;;;;;;;12.70;4.90;;;;;;;5.59;75.91;93843.91;4890271;29;20029;-84
2023/11/17 02:10:06;;;;;;;10.25;5.28;;;;;;;5.59;76.22;93830.69;4888985;29;20025;-83
2023/11/17 02:12:52;;;;;;;16.33;5.13;;;;;;;5.57;76.21;93841.53;4890232;29;20039;-83
2023/11/17 02:15:24;;;;;;;18.33;6.53;;;;;;;5.43;77.06;93827.41;4888856;29;20045;-84
2023/11/17 02:17:51;;;;;;;14.77;7.45;;;;;;;5.33;77.54;93825.69;4888967;29;20045;-83
2023/11/17 02:20:20;;;;;;;21.60;7.78;;;;;;;5.25;78.18;93817.56;4890124;29;20048;-84
2023/11/17 02:22:51;;;;;;;16.90;7.97;;;;;;;5.19;78.99;93820.28;4890297;29;20088;-84
2023/11/17 02:25:32;;;;;;;18.80;6.78;;;;;;;5.20;78.60;93810.50;4888724;29;20036;-84
2023/11/17 02:28:34;;;;;;;25.35;6.72;;;;;;;5.21;78.97;93804.13;4889938;29;20029;-84
2023/11/17 02:31:12;;;;;;;20.30;7.03;;;;;;;5.24;79.04;93798.28;4889903;29;20288;-84
2023/11/17 02:33:41;;;;;;;19.35;6.35;;;;;;;5.31;79.33;93801.41;4889826;29;20048;-84
2023/11/17 02:36:16;;;;;;;13.02;5.90;;;;;;;5.31;78.84;93788.19;4889735;29;20330;-82
2023/11/17 02:39:14;;;;;;;11.30;4.30;;;;;;;5.35;78.95;93778.63;4889642;29;20036;-82
2023/11/17 02:41:48;;;;;;;13.98;5.20;;;;;;;5.35;78.44;93773.34;4889041;29;20033;-82
2023/11/17 02:44:15;;;;;;;8.93;4.68;;;;;;;5.33;78.32;93772.84;4889723;29;20037;-82
2023/11/17 02:46:44;;;;;;;11.10;5.47;;;;;;;5.30;78.35;93768.09;4889303;29;20021;-82
2023/11/17 02:49:17;;;;;;;11.27;4.38;;;;;;;5.32;78.27;93758.03;4889552;29;20032;-82
2023/11/17 02:51:44;;;;;;;10.63;5.35;;;;;;;5.30;78.42;93756.75;4889832;29;20083;-84
2023/11/17 02:54:13;;;;;;;13.10;4.75;;;;;;;5.30;78.52;93762.81;4888549;29;20052;-83
2023/11/17 02:56:39;;;;;;;14.52;5.25;;;;;;;5.28;78.33;93762.31;4889269;29;20020;-82
2023/11/17 02:59:09;;;;;;;13.90;4.82;;;;;;;5.22;78.64;93758.16;4889228;29;20029;-82
2023/11/17 03:01:38;;;;;;;10.57;4.72;;;;;;;5.22;78.56;93747.56;4889270;29;20227;-82
2023/11/17 03:04:05;;;;;;;15.93;5.40;;;;;;;5.25;78.65;93725.88;4889409;29;20020;-83
2023/11/17 03:06:31;;;;;;;16.70;6.72;;;;;;;5.27;78.60;93726.41;4889201;29;20021;-84
2023/11/17 03:08:57;;;;;;;13.38;5.72;;;;;;;5.31;78.76;93714.19;4888859;29;20020;-83
2023/11/17 03:11:24;;;;;;;15.38;5.68;;;;;;;5.33;78.85;93719.16;4889374;29;20032;-83
2023/11/17 03:13:50;;;;;;;10.93;5.40;;;;;;;5.30;78.74;93714.47;4889185;29;20073;-83
2023/11/17 03:16:23;;;;;;;12.18;6.50;;;;;;;5.31;78.69;93721.31;4888390;29;20029;-87
2023/11/17 03:18:52;;;;;;;11.55;5.97;;;;;;;5.30;78.57;93720.53;4889876;29;20037;-87
2023/11/17 03:21:19;;;;;;;22.67;8.02;;;;;;;5.30;78.60;93723.16;4889735;29;20037;-87
2023/11/17 03:23:44;;;;;;;22.13;8.32;;;;;;;5.29;78.64;93712.88;4888441;29;20104;-84
2023/11/17 03:26:11;;;;;;;23.35;8.73;;;;;;;5.27;79.04;93721.09;4888030;29;20090;-82
2023/11/17 03:28:37;;;;;;;16.98;8.48;;;;;;;5.23;79.33;93720.06;4888868;29;20130;-83
2023/11/17 03:31:04;;;;;;;16.08;7.00;;;;;;;5.18;79.13;93709.56;4889136;29;20204;-83
2023/11/17 03:33:30;;;;;;;15.60;5.88;;;;;;;5.15;79.19;93704.84;4888943;29;20315;-83
2023/11/17 03:35:56;;;;;;;12.30;7.03;;;;;;;5.15;79.10;93699.56;4887671;29;20061;-83
2023/11/17 03:38:22;;;;;;;13.20;5.88;;;;;;;5.13;79.02;93693.78;4888030;29;20033;-84
2023/11/17 03:40:47;;;;;;;14.68;6.13;;;;;;;5.11;79.37;93696.72;4889141;29;20024;-84
2023/11/17 03:43:13;;;;;;;15.38;6.00;;;;;;;5.11;79.14;93695.91;4889249;29;20025;-84
2023/11/17 03:45:48;;;;;;;13.10;6.68;;;;;;;5.10;79.33;93689.06;4888940;29;20065;-83
2023/11/17 03:48:14;;;;;;;14.05;6.63;;;;;;;5.08;79.11;93685.91;4889253;29;20065;-84
2023/11/17 03:50:39;;;;;;;15.57;5.72;;;;;;;5.08;79.19;93681.41;4889075;29;20046;-85
2023/11/17 03:53:05;;;;;;;13.40;6.03;;;;;;;5.05;78.97;93670.63;4889156;29;20087;-84
2023/11/17 03:55:31;;;;;;;14.15;6.28;;;;;;;5.05;79.08;93678.53;4888914;29;20138;-84
2023/11/17 03:57:57;;;;;;;15.55;6.97;;;;;;;5.02;79.47;93678.03;4888866;29;20032;-84
2023/11/17 04:00:23;;;;;;;16.25;6.70;;;;;;;4.99;79.44;93669.91;4888848;29;20021;-84
2023/11/17 04:02:52;;;;;;;15.20;7.38;;;;;;;4.96;79.58;93663.31;4888707;29;20029;-83
2023/11/17 04:05:18;;;;;;;14.55;6.53;;;;;;;4.97;79.63;93680.75;4891374;29;20100;-87
2023/11/17 04:07:44;;;;;;;12.70;6.57;;;;;;;4.90;79.57;93690.84;4893109;29;20024;-87
2023/11/17 04:10:10;;;;;;;15.95;8.23;;;;;;;4.89;79.82;93683.25;4892067;29;20025;-87
2023/11/17 04:12:36;;;;;;;22.25;8.40;;;;;;;4.84;80.06;93681.41;4892823;29;20095;-87
2023/11/17 04:15:02;;;;;;;17.00;8.25;;;;;;;4.80;80.24;93691.78;4891383;29;20390;-87
2023/11/17 04:17:30;;;;;;;19.27;8.60;;;;;;;4.78;80.21;93675.44;4890597;29;20047;-87
2023/11/17 04:19:56;;;;;;;11.30;6.28;;;;;;;4.68;79.95;93687.94;4891736;29;20048;-87
2023/11/17 04:22:22;;;;;;;10.70;5.07;;;;;;;4.49;80.34;93679.94;4891745;29;20033;-87
2023/11/17 04:24:47;;;;;;;18.70;6.05;;;;;;;4.46;80.85;93689.22;4892287;29;20021;-87
2023/11/17 04:27:13;;;;;;;13.88;7.20;;;;;;;4.40;80.98;93677.13;4892487;29;20065;-86
2023/11/17 04:29:38;;;;;;;13.10;6.40;;;;;;;4.40;81.20;93680.56;4891370;29;20028;-87
2023/11/17 04:32:04;;;;;;;12.90;6.38;;;;;;;4.41;81.59;93678.69;4892383;29;20048;-86
2023/11/17 04:34:31;;;;;;;16.65;7.07;;;;;;;4.37;81.60;93689.00;4891193;29;20032;-86
2023/11/17 04:36:57;;;;;;;12.95;6.50;;;;;;;4.40;81.42;93685.06;4892087;29;20040;-86
2023/11/17 04:39:24;;;;;;;18.08;7.10;;;;;;;4.34;81.64;93665.84;4891879;29;20319;-86
2023/11/17 04:41:51;;;;;;;15.65;7.00;;;;;;;4.37;81.54;93667.91;4890811;29;20031;-85
2023/11/17 04:44:18;;;;;;;15.20;7.68;;;;;;;4.39;81.49;93675.53;4891917;29;20035;-85
2023/11/17 04:46:43;;;;;;;17.55;6.95;;;;;;;4.33;81.11;93684.56;4891930;29;20323;-85
2023/11/17 04:49:09;;;;;;;14.35;6.38;;;;;;;4.30;81.42;93678.00;4891627;29;20092;-84
2023/11/17 04:51:35;;;;;;;20.65;7.13;;;;;;;4.33;81.56;93689.84;4891530;29;20052;-84
2023/11/17 04:54:01;;;;;;;13.50;6.30;;;;;;;4.33;81.17;93687.22;4891651;29;20100;-85
2023/11/17 04:56:28;;;;;;;11.90;6.28;;;;;;;4.35;81.44;93680.59;4891535;29;20248;-85
2023/11/17 04:58:54;;;;;;;11.50;5.95;;;;;;;4.43;81.28;93685.25;4891771;29;20029;-85
2023/11/17 05:01:20;;;;;;;18.45;6.40;;;;;;;4.52;81.31;93689.94;4891558;29;20145;-82
2023/11/17 05:03:45;;;;;;;12.13;6.10;;;;;;;4.57;81.07;93677.47;4891341;29;20226;-83
2023/11/17 05:06:17;;;;;;;12.05;6.38;;;;;;;4.61;80.85;93665.28;4891006;29;20033;-82
2023/11/17 05:08:43;;;;;;;12.95;6.00;;;;;;;4.66;80.98;93674.22;4890221;29;20080;-82
2023/11/17 05:11:09;;;;;;;10.65;5.90;;;;;;;4.72;80.82;93688.94;4891022;29;20099;-82
2023/11/17 05:13:35;;;;;;;11.15;5.07;;;;;;;4.77;80.64;93658.00;4890816;29;20263;-84
2023/11/17 05:16:03;;;;;;;10.88;5.80;;;;;;;4.86;80.34;93668.72;4889982;29;20033;-85
2023/11/17 05:18:28;;;;;;;12.98;7.28;;;;;;;4.94;80.84;93662.81;4889669;29;20278;-82
2023/11/17 05:20:54;;;;;;;11.95;6.45;;;;;;;4.94;80.57;93665.47;4891177;29;20025;-83
2023/11/17 05:23:20;;;;;;;14.95;5.47;;;;;;;4.94;80.50;93670.75;4890818;29;20021;-83
2023/11/17 05:25:45;;;;;;;12.63;6.10;;;;;;;4.95;80.26;93664.41;4890948;29;20028;-83
2023/11/17 05:28:12;;;;;;;10.00;5.25;;;;;;;5.02;80.06;93642.91;4890690;29;20032;-84
2023/11/17 05:30:39;;;;;;;14.25;5.32;;;;;;;5.10;79.79;93636.22;4890786;29;20021;-84
2023/11/17 05:33:05;;;;;;;10.52;4.95;;;;;;;5.13;79.87;93617.97;4890788;29;20021;-85
2023/11/17 05:35:31;;;;;;;18.40;6.10;;;;;;;5.20;79.54;93620.25;4889742;29;20076;-85
2023/11/17 05:37:57;;;;;;;14.35;5.30;;;;;;;5.25;79.18;93622.84;4890785;29;20122;-85
2023/11/17 05:40:23;;;;;;;12.50;5.40;;;;;;;5.33;78.82;93622.19;4890924;29;20025;-85
2023/11/17 05:42:48;;;;;;;23.73;6.07;;;;;;;5.38;78.41;93621.31;4889697;29;20223;-85
2023/11/17 05:45:14;;;;;;;20.73;5.22;;;;;;;5.43;78.63;93603.53;4890950;29;20473;-85
2023/11/17 05:47:40;;;;;;;12.80;5.57;;;;;;;5.53;78.45;93620.31;4890941;29;20021;-85
2023/11/17 05:50:11;;;;;;;11.27;5.93;;;;;;;5.55;77.99;93610.25;4890939;29;20492;-85
2023/11/17 05:52:39;;;;;;;22.73;5.15;;;;;;;5.55;78.11;93616.31;4890777;29;20105;-86
2023/11/17 05:55:06;;;;;;;15.65;6.38;;;;;;;5.45;78.01;93608.53;4890843;29;20052;-85
2023/11/17 05:57:31;;;;;;;14.93;6.55;;;;;;;5.38;78.39;93613.41;4889367;29;20033;-85
2023/11/17 05:59:57;;;;;;;13.52;5.65;;;;;;;5.40;78.72;93614.69;4889862;29;20207;-85
2023/11/17 06:02:23;;;;;;;15.40;6.03;;;;;;;5.38;78.33;93626.63;4890826;29;20025;-85
2023/11/17 06:04:49;;;;;;;14.57;7.00;;;;;;;5.37;78.35;93620.56;4890782;29;20032;-85
2023/11/17 06:07:15;;;;;;;25.75;8.13;;;;;;;5.36;78.46;93621.59;4889764;29;20080;-84
2023/11/17 06:09:42;;;;;;;27.02;8.73;;;;;;;5.36;78.81;93634.81;4890308;29;20028;-82
2023/11/17 06:12:09;;;;;;;29.65;8.98;;;;;;;5.41;79.42;93623.38;4890357;29;20196;-83
2023/11/17 06:14:35;;;;;;;34.30;8.80;;;;;;;5.48;79.47;93628.34;4890173;29;20122;-83
2023/11/17 06:17:04;;;;;;;23.33;8.20;;;;;;;5.56;79.22;93631.13;4890299;29;20029;-83
2023/11/17 06:19:29;;;;;;;16.70;7.85;;;;;;;5.67;78.39;93630.97;4890138;29;20076;-81
2023/11/17 06:21:55;;;;;;;20.02;8.98;;;;;;;5.69;77.95;93632.25;4888912;29;20037;-80
2023/11/17 06:24:21;;;;;;;17.45;7.82;;;;;;;5.75;77.50;93625.03;4890042;29;20025;-81
2023/11/17 06:26:46;;;;;;;18.08;7.65;;;;;;;5.81;77.32;93639.75;4890198;29;20025;-81
2023/11/17 06:29:16;;;;;;;20.67;7.32;;;;;;;5.79;77.56;93647.94;4889887;29;20025;-81
2023/11/17 06:31:42;;;;;;;14.43;7.55;;;;;;;5.77;76.99;93652.75;4889984;29;20099;-81
2023/11/17 06:34:11;;;;;;;15.10;7.10;;;;;;;5.82;77.03;93636.00;4889686;29;20045;-80
2023/11/17 06:36:41;;;;;;;17.77;7.25;;;;;;;5.86;77.41;93628.28;4889647;29;20075;-80
2023/11/17 06:39:18;;;;;;;14.88;7.65;;;;;;;5.96;77.40;93614.94;4888512;29;20043;-80
2023/11/17 06:41:48;;;;;;;19.30;8.07;;;;;;;6.09;77.10;93605.47;4889808;29;20032;-83
2023/11/17 06:44:18;;;;;;;14.77;7.18;;;;;;;6.21;76.03;93613.72;4889682;29;20029;-83
2023/11/17 06:46:48;;;;;;;14.63;8.10;;;;;;;6.31;75.15;93612.75;4888386;29;20025;-83
2023/11/17 06:49:24;;;;;;;16.02;7.47;;;;;;;6.45;74.66;93607.47;4889464;29;20073;-83
2023/11/17 06:51:51;;;;;;;21.00;8.32;;;;;;;6.54;74.22;93608.38;4889452;29;20060;-83
2023/11/17 06:54:18;;;;;;;26.33;8.27;;;;;;;6.49;74.07;93601.28;4889273;29;20257;-83
2023/11/17 06:56:47;;;;;;;14.43;7.93;;;;;;;6.55;73.76;93608.06;4889155;29;20370;-84
2023/11/17 06:59:14;;;;;;;21.17;10.93;;;;;;;6.66;73.11;93605.25;4889548;29;20025;-85
2023/11/17 07:01:40;;;;;;;19.73;7.78;;;;;;;6.71;73.24;93599.84;4889170;29;20092;-85
2023/11/17 07:04:07;;;;;;;20.27;7.68;;;;;;;6.78;74.35;93590.44;4887868;29;20025;-84
2023/11/17 07:06:34;;;;;;;21.20;8.48;;;;;;;6.83;74.53;93584.25;4888993;29;20029;-82
2023/11/17 07:09:03;;;;;;;28.15;9.57;;;;;;;6.82;75.07;93582.69;4888813;29;20036;-83
2023/11/17 07:11:29;;;;;;;22.00;10.43;;;;;;;6.83;75.79;93587.66;4888961;29;20055;-83
2023/11/17 07:13:55;;;;;;;20.20;10.63;;;;;;;6.69;76.49;93610.72;4889026;29;20024;-83
2023/11/17 07:16:21;;;;;;;20.90;11.15;;;;;;;6.57;77.84;93640.38;4888736;29;20260;-81
2023/11/17 07:18:47;;;;;;;21.50;11.60;;;;;;;6.34;79.29;93650.00;4888736;29;20138;-81
2023/11/17 07:21:14;;;;;;;27.80;12.68;;;;;;;5.97;80.72;93653.53;4888777;29;20218;-83
2023/11/17 07:23:43;;;;;;;26.55;12.85;;;;;;;5.81;82.18;93634.44;4889010;29;20047;-84
2023/11/17 07:26:17;;;;;;;27.88;13.63;;;;;;;5.85;82.53;93608.22;4888719;29;20029;-84
2023/11/17 07:28:46;;;;;;;27.67;12.65;;;;;;;5.84;83.20;93586.25;4889161;29;20025;-85
2023/11/17 07:31:18;;;;;;;27.40;14.20;;;;;;;5.87;82.28;93588.31;4888803;29;20078;-83
2023/11/17 07:33:44;;;;;;;38.45;15.02;;;;;;;5.86;80.82;93583.31;4888771;29;20032;-83
2023/11/17 07:36:15;;;;;;;29.88;15.10;;;;;;;5.89;80.98;93566.88;4888397;29;20029;-85
2023/11/17 07:38:42;;;;;;;31.58;14.95;;;;;;;5.87;80.33;93561.09;4888279;29;20040;-84
2023/11/17 07:41:07;;;;;;;33.25;14.18;;;;;;;5.82;79.17;93554.81;4888756;29;20371;-84
2023/11/17 07:43:33;;;;;;;23.50;13.63;;;;;;;5.88;79.57;93538.84;4888811;29;20033;-85
2023/11/17 07:45:58;;;;;;;26.63;14.60;;;;;;;5.99;78.69;93543.72;4889102;29;20283;-85
2023/11/17 07:48:24;;;;;;;26.10;14.73;;;;;;;6.08;79.30;93535.88;4889326;29;20052;-87
2023/11/17 07:50:52;;;;;;;30.95;15.90;;;;;;;6.16;78.86;93551.06;4889137;29;20223;-82
2023/11/17 07:53:18;;;;;;;33.80;14.82;;;;;;;6.22;78.49;93568.44;4887308;29;20044;-87
2023/11/17 07:55:44;;;;;;;24.30;13.70;;;;;;;6.29;78.55;93580.50;4889031;29;20024;-84
2023/11/17 07:58:11;;;;;;;27.00;13.57;;;;;;;6.29;78.70;93576.00;4888336;29;20044;-81
2023/11/17 08:00:37;;;;;;;24.65;13.65;;;;;;;6.31;77.86;93575.69;4887878;29;20029;-82
2023/11/17 08:03:03;;;;;;;23.23;11.57;;;;;;;6.30;78.29;93571.50;4887355;29;20025;-83
2023/11/17 08:05:30;;;;;;;26.98;11.60;;;;;;;6.40;78.74;93573.94;4888357;29;20087;-86
2023/11/17 08:07:56;;;;;;;20.77;10.20;;;;;;;6.46;77.43;93583.38;4888495;29;20077;-83
2023/11/17 08:10:22;;;;;;;21.48;10.32;;;;;;;6.53;77.69;93570.50;4886636;29;20025;-81
2023/11/17 08:12:47;;;;;;;21.35;10.75;;;;;;;6.61;78.47;93572.50;4887884;29;20260;-77
2023/11/17 08:15:14;;;;;;;24.23;11.63;;;;;;;6.71;79.83;93541.56;4887025;29;20025;-79
2023/11/17 08:17:39;;;;;;;25.08;10.38;;;;;;;6.82;79.62;93525.19;4887247;29;20327;-79
2023/11/17 08:20:10;;;;;;;19.95;9.90;;;;;;;6.97;79.64;93541.84;4888689;29;20024;-84
2023/11/17 08:22:36;;;;;;;19.17;10.32;;;;;;;7.08;79.46;93543.16;4888432;29;20212;-73
2023/11/17 08:25:03;;;;;;;20.98;10.30;;;;;;;7.19;77.45;93533.94;4888037;29;20069;-73
2023/11/17 08:27:28;;;;;;;20.85;10.52;;;;;;;7.28;75.97;93515.44;4888038;29;20216;-73
2023/11/17 08:29:54;;;;;;;21.85;10.95;;;;;;;7.34;78.17;93522.19;4888022;29;20025;-73
2023/11/17 08:32:19;;;;;;;20.95;10.63;;;;;;;7.50;78.98;93532.44;4887913;29;20017;-76
2023/11/17 08:34:46;;;;;;;19.23;10.18;;;;;;;7.68;77.40;93510.25;4888210;29;20025;-73
2023/11/17 08:37:12;;;;;;;26.95;10.80;;;;;;;7.81;77.56;93509.38;4888096;29;20024;-73
2023/11/17 08:39:38;;;;;;;26.35;12.60;;;;;;;7.99;77.94;93502.31;4886786;29;20257;-73
2023/11/17 08:42:04;;;;;;;24.52;12.60;;;;;;;8.16;78.70;93496.31;4887918;29;20021;-73
2023/11/17 08:44:29;;;;;;;21.75;12.00;;;;;;;8.27;77.54;93502.13;4888027;29;20032;-73
2023/11/17 08:46:55;;;;;;;21.45;10.55;;;;;;;8.40;77.53;93497.78;4887878;29;20184;-73
2023/11/17 08:49:20;;;;;;;16.92;10.32;;;;;;;8.55;76.13;93481.47;4886788;29;20301;-86
2023/11/17 08:51:47;;;;;;;22.33;11.70;;;;;;;8.67;75.32;93488.84;4888358;29;20029;-83
2023/11/17 08:54:17;;;;;;;17.58;10.20;;;;;;;8.83;75.02;93481.19;4892126;29;20116;-84
2023/11/17 08:56:47;;;;;;;18.42;9.80;;;;;;;8.97;74.33;93481.81;4891384;29;20025;-84
2023/11/17 08:59:14;;;;;;;20.98;9.77;;;;;;;9.13;73.74;93466.22;4891666;29;20092;-84
2023/11/17 09:01:41;;;;;;;18.45;9.65;;;;;;;9.21;71.81;93475.28;4890062;29;20051;-84
2023/11/17 09:04:06;;;;;;;22.02;10.10;;;;;;;9.27;69.78;93463.41;4891662;29;20056;-85
2023/11/17 09:06:33;;;;;;;28.05;11.88;;;;;;;9.38;69.40;93451.34;4891581;29;20036;-85
2023/11/17 09:08:59;;;;;;;26.27;10.05;;;;;;;9.44;69.02;93450.09;4891628;29;20043;-85
2023/11/17 09:11:25;;;;;;;24.40;10.60;;;;;;;9.40;69.87;93451.00;4890902;29;20045;-85
2023/11/17 09:13:51;;;;;;;19.75;8.48;;;;;;;9.36;66.65;93461.53;4890440;29;20025;-85
2023/11/17 09:16:17;;;;;;;21.67;10.15;;;;;;;9.23;66.90;93451.81;4891416;29;20029;-86
2023/11/17 09:18:42;;;;;;;13.85;8.80;;;;;;;9.26;67.44;93461.03;4890287;29;20032;-87
2023/11/17 09:21:10;;;;;;;16.92;9.20;;;;;;;9.31;68.10;93464.31;4890433;29;20025;-81
2023/11/17 09:23:35;;;;;;;16.02;8.07;;;;;;;9.27;67.33;93446.66;4891091;29;20036;-81
2023/11/17 09:26:02;;;;;;;17.20;7.88;;;;;;;9.15;68.00;93440.09;4890878;29;20234;-79
2023/11/17 09:28:28;;;;;;;20.70;9.65;;;;;;;9.22;68.35;93431.66;4890824;29;20025;-80
2023/11/17 09:30:54;;;;;;;17.35;8.30;;;;;;;9.14;68.37;93429.75;4890717;29;20040;-80
2023/11/17 09:33:19;;;;;;;20.73;8.45;;;;;;;9.20;69.15;93423.22;4890473;29;20057;-81
2023/11/17 09:35:48;;;;;;;20.75;7.90;;;;;;;9.24;66.42;93440.88;4889637;29;20036;-79
2023/11/17 09:38:16;;;;;;;14.35;7.53;;;;;;;9.16;66.81;93441.66;4890475;29;20068;-80
2023/11/17 09:40:42;;;;;;;16.88;7.55;;;;;;;9.12;67.85;93432.75;4890485;29;20029;-79
2023/11/17 09:43:16;;;;;;;19.63;7.03;;;;;;;9.22;68.73;93444.94;4889392;29;20037;-78
2023/11/17 09:45:45;;;;;;;17.17;8.30;;;;;;;9.21;68.20;93438.06;4890729;29;20025;-83
2023/11/17 09:48:12;;;;;;;17.05;7.50;;;;;;;9.24;68.85;93453.41;4890619;29;20021;-86
2023/11/17 09:50:42;;;;;;;19.90;7.68;;;;;;;9.17;69.69;93437.91;4889743;29;20033;-85
2023/11/17 09:53:12;;;;;;;27.63;10.25;;;;;;;9.13;69.88;93441.50;4889274;29;20049;-85
2023/11/17 09:55:39;;;;;;;18.00;7.80;;;;;;;9.07;71.23;93432.13;4889373;29;20029;-85
2023/11/17 09:58:09;;;;;;;18.58;9.68;;;;;;;9.03;71.71;93453.22;4889443;29;20097;-83
2023/11/17 10:00:45;;;;;;;22.63;10.95;;;;;;;8.95;70.83;93438.84;4889247;29;20378;-83
2023/11/17 10:03:13;;;;;;;18.27;9.48;;;;;;;8.80;72.89;93441.97;4889845;29;20055;-83
2023/11/17 10:05:40;;;;;;;19.88;10.60;;;;;;;8.75;73.80;93442.91;4890243;29;20124;-85
2023/11/17 10:08:13;;;;;;;19.85;10.05;;;;;;;8.70;72.83;93428.97;4890153;29;20093;-82
2023/11/17 10:10:44;;;;;;;25.73;12.98;;;;;;;8.70;71.99;93443.03;4888991;29;20032;-83
2023/11/17 10:13:16;;;;;;;27.23;11.38;;;;;;;8.72;72.59;93410.84;4889927;29;20099;-82
2023/11/17 10:15:46;;;;;;;20.98;11.88;;;;;;;8.74;72.98;93412.09;4890122;29;20231;-82
2023/11/17 10:18:20;;;;;;;32.47;13.85;;;;;;;8.77;72.66;93402.72;4890059;29;20069;-82
2023/11/17 10:20:46;;;;;;;20.98;10.20;;;;;;;8.81;71.85;93416.94;4890095;29;20096;-82
2023/11/17 10:23:12;;;;;;;21.48;10.02;;;;;;;8.83;73.09;93428.84;4890254;29;20029;-84
2023/11/17 10:25:40;;;;;;;21.83;10.63;;;;;;;8.83;71.68;93417.41;4888739;29;20107;-81
2023/11/17 10:28:08;;;;;;;18.40;11.02;;;;;;;8.86;72.41;93395.53;4889858;29;20346;-81
2023/11/17 10:30:37;;;;;;;23.83;11.48;;;;;;;8.92;71.53;93394.28;4888553;29;20041;-81
2023/11/17 10:33:37;;;;;;;22.73;12.57;;;;;;;8.95;72.05;93376.91;4888171;29;20290;-81
2023/11/17 10:36:12;;;;;;;21.63;10.73;;;;;;;9.03;73.99;93374.25;4888038;29;20021;-80
2023/11/17 10:38:45;;;;;;;17.08;10.07;;;;;;;9.15;72.91;93384.25;4888648;29;20069;-79
2023/11/17 10:41:30;;;;;;;21.25;10.95;;;;;;;9.17;72.25;93383.94;4889507;29;20029;-80
2023/11/17 10:44:01;;;;;;;17.20;8.50;;;;;;;9.11;71.48;93369.25;4886853;29;20467;-79
2023/11/17 10:46:28;;;;;;;16.17;8.05;;;;;;;9.23;71.17;93348.88;4887752;29;20062;-80
2023/11/17 10:48:59;;;;;;;21.98;8.13;;;;;;;9.37;69.48;93354.03;4886623;29;20029;-80
2023/11/17 10:51:26;;;;;;;13.10;8.18;;;;;;;9.43;69.19;93344.00;4887675;29;20044;-80
2023/11/17 10:54:08;;;;;;;10.38;6.65;;;;;;;9.58;68.78;93316.84;4886584;29;20049;-81
2023/11/17 10:56:34;;;;;;;17.80;7.10;;;;;;;9.75;69.11;93313.34;4887690;29;20029;-81
2023/11/17 10:59:00;;;;;;;14.90;7.53;;;;;;;10.01;69.51;93302.56;4887716;29;20235;-80
2023/11/17 11:01:34;;;;;;;17.60;6.63;;;;;;;10.31;69.42;93293.78;4888271;29;20027;-80
2023/11/17 11:04:00;;;;;;;14.38;8.60;;;;;;;10.54;66.85;93305.69;4888838;29;20024;-80
2023/11/17 11:06:26;;;;;;;20.85;8.45;;;;;;;10.60;66.06;93290.25;4888906;29;20021;-80
2023/11/17 11:09:08;;;;;;;21.60;8.57;;;;;;;10.71;67.80;93261.34;4888463;29;20037;-81
2023/11/17 11:11:35;;;;;;;21.38;9.20;;;;;;;10.97;68.80;93272.53;4887949;29;20387;-81
2023/11/17 11:14:04;;;;;;;17.48;8.75;;;;;;;11.16;67.19;93260.56;4888557;29;20103;-80
2023/11/17 11:16:32;;;;;;;18.25;9.48;;;;;;;11.33;67.07;93255.03;4889003;29;20025;-81
2023/11/17 11:19:02;;;;;;;14.98;8.00;;;;;;;11.51;64.97;93249.50;4889027;29;20235;-80
2023/11/17 11:21:35;;;;;;;11.18;6.75;;;;;;;11.69;66.11;93250.06;4888903;29;20390;-81
2023/11/17 11:24:04;;;;;;;17.30;7.00;;;;;;;11.76;64.10;93248.34;4887745;29;20029;-81
2023/11/17 11:26:32;;;;;;;14.63;7.60;;;;;;;11.90;64.95;93240.03;4888900;29;20039;-81
2023/11/17 11:28:58;;;;;;;17.88;5.90;;;;;;;12.11;64.58;93239.13;4888696;29;20088;-80
2023/11/17 11:31:25;;;;;;;12.73;5.05;;;;;;;12.18;61.92;93240.09;4887704;29;20048;-80
2023/11/17 11:33:52;;;;;;;15.02;4.65;;;;;;;12.38;61.04;93234.94;4887648;29;20319;-80